Capitol Logistics 2519


KMEM
Memphis International Airport
Memphis, Tennessee, US
KOAK
Metropolitan Oakland International Airport
Oakland, California, US

Route Details

Aircraft Information
Primary: Boeing 747-400BCF
Backup: Boeing 767-300BDSF
Date Restrictions
Between:Nov 16, 2019
Dec 31, 2019
Route Data
Distance: 1561nm
Sched. Duration: 3h 49m
Avg. Duration: 4h 13m (+65m)
Times Flown: 4
Recm'd Route: ZUMIT4 FOXOM KM33I KM36G TUL HALEN DVC ROCCY Q164 KITTN JSICA MONOH OAKES2
Planned Altitude: 34,000ft
Origin Wx: KMEM 221754Z 19009KT 10SM BKN031 BKN050 28/19 A3007 RMK AO2 SLP179 T02780194 10283 20189 56015
Dest. Wx: KOAK 221753Z 31006KT 10SM FEW012 FEW200 20/13 A2989 RMK AO2 SLP121 T02000133 10206 20122 51015
Notes: SEASONAL FLIGHT | FEDEX SURGE OPS CONTRACT

Financial History
Total Freight: 535,692lbs
Average Load: 133,923lbs/flt
Fuel Used: 248,901lbs
Avg. Fuel Used: 62,225lbs/flt
Fuel Expense: $261,346
Avg. Fuel Expense: $65,337
Avg. Fuel Cost: $1.05/lbs
Total Gross Income: $1,012,458
Pilot Pay: $796
Total Expenses: $109,553
Total Revenue: $636,912
Average Revenue: $253,114.46